Time;durP1;ratioP1;P1;durP2;ratioP2;P2;SDS_P1;SDS_P2;PMS_P1;PMS_P2;Temp;Humidity;BMP_temperature;BMP_pressure;BME280_temperature;BME280_humidity;BME280_pressure;Samples;Min_cycle;Max_cycle;Signal;HPM_P1;HPM_P2
2022/03/10 00:01:21;;;;;;;16.13;6.70;;;;;;;2.71;54.52;102249.13;5032304;28;20089;-84
2022/03/10 00:03:46;;;;;;;15.05;6.43;;;;;;;2.65;53.76;102251.47;5032093;28;20143;-84
2022/03/10 00:06:11;;;;;;;17.08;6.43;;;;;;;2.60;53.83;102254.69;5032266;28;20351;-84
2022/03/10 00:08:43;;;;;;;17.98;7.40;;;;;;;2.56;53.81;102257.97;5032720;28;20021;-85
2022/03/10 00:11:08;;;;;;;16.23;6.82;;;;;;;2.53;53.72;102252.72;5032347;28;20021;-85
2022/03/10 00:13:33;;;;;;;18.83;8.00;;;;;;;2.57;52.89;102259.72;5032005;28;20029;-84
2022/03/10 00:15:59;;;;;;;17.15;7.20;;;;;;;2.58;55.12;102268.28;5032491;28;20059;-84
2022/03/10 00:18:27;;;;;;;18.77;7.75;;;;;;;2.60;53.06;102269.22;5031548;28;20506;-84
2022/03/10 00:20:52;;;;;;;17.55;7.53;;;;;;;2.57;54.86;102269.97;5032402;28;21153;-84
2022/03/10 00:23:18;;;;;;;19.15;8.35;;;;;;;2.51;55.35;102258.59;5031995;28;20119;-85
2022/03/10 00:25:43;;;;;;;20.75;8.85;;;;;;;2.51;55.13;102259.47;5032114;28;20025;-84
2022/03/10 00:28:09;;;;;;;18.25;8.02;;;;;;;2.47;56.52;102260.16;5032726;28;20390;-85
2022/03/10 00:30:34;;;;;;;18.75;8.23;;;;;;;2.38;57.28;102263.22;5032205;28;20032;-84
2022/03/10 00:32:59;;;;;;;18.73;7.70;;;;;;;2.27;55.59;102260.19;5031625;28;20408;-84
2022/03/10 00:35:27;;;;;;;18.60;8.13;;;;;;;2.26;54.68;102262.69;5032207;28;20060;-85
2022/03/10 00:37:53;;;;;;;19.35;8.90;;;;;;;2.24;54.57;102262.66;5032509;28;20473;-84
2022/03/10 00:40:25;;;;;;;19.33;8.70;;;;;;;2.22;54.30;102255.69;5032407;28;20504;-84
2022/03/10 00:42:51;;;;;;;19.20;7.97;;;;;;;2.28;55.95;102266.22;5036595;28;20420;-85
2022/03/10 00:45:16;;;;;;;19.55;8.02;;;;;;;2.25;56.95;102263.50;5036434;28;20028;-83
2022/03/10 00:47:42;;;;;;;18.77;7.95;;;;;;;2.22;56.65;102266.81;5035458;28;20398;-85
2022/03/10 00:50:08;;;;;;;19.10;8.40;;;;;;;2.23;54.25;102266.03;5036279;28;20037;-85
2022/03/10 00:52:40;;;;;;;20.30;9.15;;;;;;;2.23;55.35;102273.72;5035956;28;20036;-84
2022/03/10 00:55:06;;;;;;;18.42;7.93;;;;;;;2.26;54.75;102270.38;5035383;28;20029;-85
2022/03/10 00:57:32;;;;;;;19.52;8.20;;;;;;;2.25;56.91;102272.06;5035971;28;20448;-84
2022/03/10 00:59:59;;;;;;;18.10;7.18;;;;;;;2.24;55.10;102275.47;5035510;28;20089;-84
2022/03/10 01:02:25;;;;;;;19.10;7.90;;;;;;;2.25;54.17;102276.31;5040945;22;20056;-84
2022/03/10 01:04:50;;;;;;;18.17;7.70;;;;;;;2.26;55.17;102267.81;5036158;28;20026;-85
2022/03/10 01:07:16;;;;;;;18.23;7.38;;;;;;;2.25;56.09;102268.63;5035230;28;20043;-84
2022/03/10 01:09:41;;;;;;;17.90;7.60;;;;;;;2.19;55.57;102271.81;5035901;28;20025;-85
2022/03/10 01:12:06;;;;;;;19.92;8.30;;;;;;;2.14;54.66;102268.16;5038287;28;20373;-85
2022/03/10 01:14:34;;;;;;;19.27;8.52;;;;;;;2.10;57.40;102271.44;5035136;28;20037;-84
2022/03/10 01:17:00;;;;;;;19.30;8.45;;;;;;;2.02;55.64;102273.66;5035459;28;20501;-84
2022/03/10 01:19:25;;;;;;;19.50;8.63;;;;;;;1.98;55.81;102275.22;5035533;28;20034;-85
2022/03/10 01:21:50;;;;;;;19.38;8.85;;;;;;;1.97;55.42;102275.16;5035180;28;20037;-85
2022/03/10 01:24:16;;;;;;;23.17;10.07;;;;;;;1.96;55.19;102271.72;5035679;28;20024;-84
2022/03/10 01:26:41;;;;;;;21.83;10.27;;;;;;;1.97;55.54;102259.78;5035539;28;20025;-85
2022/03/10 01:29:06;;;;;;;21.10;9.63;;;;;;;1.95;55.38;102267.41;5035034;28;20022;-85
2022/03/10 01:31:32;;;;;;;24.00;10.90;;;;;;;1.94;55.64;102263.06;5034840;28;20038;-85
2022/03/10 01:33:57;;;;;;;21.98;10.52;;;;;;;1.88;55.84;102255.16;5033927;28;20040;-85
2022/03/10 01:36:23;;;;;;;20.98;9.90;;;;;;;1.92;55.93;102262.13;5034609;28;20017;-84
2022/03/10 01:39:10;;;;;;;19.77;8.82;;;;;;;1.88;56.37;102265.38;5034965;28;20108;-85
2022/03/10 01:41:35;;;;;;;21.00;9.45;;;;;;;1.82;58.72;102260.88;5034193;28;20057;-85
2022/03/10 01:44:13;;;;;;;20.92;9.30;;;;;;;1.86;55.56;102264.44;5034162;28;20025;-84
2022/03/10 01:46:38;;;;;;;21.48;10.07;;;;;;;1.79;56.17;102260.72;5035104;28;20018;-85
2022/03/10 01:49:07;;;;;;;21.60;9.88;;;;;;;1.76;56.96;102263.16;5035026;28;20018;-84
2022/03/10 01:51:33;;;;;;;21.17;9.98;;;;;;;1.74;56.25;102252.00;5033703;28;20080;-84
2022/03/10 01:53:58;;;;;;;21.58;10.48;;;;;;;1.73;56.44;102257.03;5034913;28;20045;-85
2022/03/10 01:56:24;;;;;;;23.73;11.20;;;;;;;1.70;57.11;102261.19;5033969;28;20812;-85
2022/03/10 01:58:52;;;;;;;21.43;10.17;;;;;;;1.65;56.95;102264.38;5035282;28;20033;-84
2022/03/10 02:01:18;;;;;;;20.48;9.80;;;;;;;1.59;56.97;102256.41;5034424;28;20124;-84
2022/03/10 02:03:43;;;;;;;21.40;9.88;;;;;;;1.56;57.20;102262.28;5034457;28;20398;-85
2022/03/10 02:06:10;;;;;;;21.30;9.63;;;;;;;1.53;56.97;102259.59;5035013;28;20025;-85
2022/03/10 02:11:20;;;;;;;20.75;9.43;;;;;;;1.52;59.07;102255.28;5033949;28;20040;-85
2022/03/10 02:13:46;;;;;;;20.45;9.30;;;;;;;1.48;56.79;102250.81;5035070;28;20112;-85
2022/03/10 02:18:59;;;;;;;20.63;9.38;;;;;;;1.44;56.76;102244.69;5034307;28;20566;-85
2022/03/10 02:21:26;;;;;;;20.60;9.13;;;;;;;1.41;57.15;102246.25;5034377;28;20049;-85
2022/03/10 02:23:51;;;;;;;19.75;8.93;;;;;;;1.38;57.81;102244.44;5034926;28;20097;-85
2022/03/10 02:26:16;;;;;;;19.83;8.88;;;;;;;1.34;58.12;102251.09;5033938;28;20028;-84
2022/03/10 02:28:42;;;;;;;19.70;8.60;;;;;;;1.31;57.91;102240.72;5034310;28;20104;-85
2022/03/10 02:31:09;;;;;;;20.75;9.20;;;;;;;1.31;59.33;102250.06;5034480;28;20026;-86
2022/03/10 02:33:34;;;;;;;19.13;8.63;;;;;;;1.28;57.88;102248.25;5033468;28;20453;-85
2022/03/10 02:36:00;;;;;;;19.48;8.68;;;;;;;1.26;57.58;102254.09;5034301;28;20036;-84
2022/03/10 02:38:25;;;;;;;20.60;8.77;;;;;;;1.23;57.54;102249.72;5033510;28;20040;-85
2022/03/10 02:40:51;;;;;;;19.55;8.68;;;;;;;1.18;58.24;102248.63;5034466;28;20025;-85
2022/03/10 02:43:18;;;;;;;20.65;9.48;;;;;;;1.15;60.28;102251.94;5033888;28;20038;-85
2022/03/10 02:45:45;;;;;;;20.92;9.27;;;;;;;1.08;58.58;102248.22;5033416;28;20021;-84
2022/03/10 02:48:11;;;;;;;20.90;9.55;;;;;;;1.04;61.88;102248.84;5034144;28;20025;-85
2022/03/10 02:50:36;;;;;;;22.13;10.63;;;;;;;1.00;58.72;102246.97;5033498;28;20382;-85
2022/03/10 02:53:01;;;;;;;23.40;11.50;;;;;;;1.02;58.60;102244.47;5033452;28;20488;-85
2022/03/10 02:55:27;;;;;;;22.20;10.40;;;;;;;1.02;58.71;102244.47;5033659;28;20109;-85
2022/03/10 02:57:52;;;;;;;21.55;10.00;;;;;;;1.04;59.05;102245.44;5033421;28;20371;-85
2022/03/10 03:00:18;;;;;;;20.83;9.60;;;;;;;1.04;58.87;102250.56;5032730;28;20026;-85
2022/03/10 03:02:44;;;;;;;21.50;9.60;;;;;;;1.03;58.54;102244.53;5033743;28;20090;-85
2022/03/10 03:05:12;;;;;;;22.80;10.43;;;;;;;1.04;59.48;102248.00;5033473;28;20378;-85
2022/03/10 03:07:38;;;;;;;20.83;9.88;;;;;;;1.02;58.95;102247.03;5032958;28;20028;-85
2022/03/10 03:10:04;;;;;;;20.90;9.27;;;;;;;1.01;59.97;102250.41;5033537;28;20116;-85
2022/03/10 03:12:29;;;;;;;19.40;8.73;;;;;;;1.01;60.10;102245.28;5034324;28;20509;-85
2022/03/10 03:14:58;;;;;;;20.35;9.13;;;;;;;0.98;60.61;102246.03;5033239;28;20473;-85
2022/03/10 03:17:50;;;;;;;20.67;9.18;;;;;;;1.02;59.21;102247.03;5033421;28;20032;-84
2022/03/10 03:20:16;;;;;;;20.92;9.02;;;;;;;1.05;59.77;102250.59;5033139;28;20044;-85
2022/03/10 03:22:43;;;;;;;20.02;8.52;;;;;;;1.06;59.41;102251.50;5032858;28;20037;-85
2022/03/10 03:25:14;;;;;;;20.10;8.75;;;;;;;1.05;59.98;102250.59;5033601;28;20036;-85
2022/03/10 03:27:41;;;;;;;19.48;7.93;;;;;;;1.06;59.78;102257.47;5032713;28;20029;-85
2022/03/10 03:30:07;;;;;;;17.38;7.45;;;;;;;1.04;60.45;102260.78;5033272;28;20389;-85
2022/03/10 03:32:32;;;;;;;18.80;8.10;;;;;;;0.99;59.63;102260.56;5033079;28;20049;-84
2022/03/10 03:34:58;;;;;;;17.70;6.90;;;;;;;0.97;59.80;102262.16;5032440;28;20071;-85
2022/03/10 03:37:23;;;;;;;17.02;6.90;;;;;;;0.94;59.96;102272.25;5033142;28;20021;-84
2022/03/10 03:39:48;;;;;;;16.00;6.47;;;;;;;0.92;60.80;102268.72;5033164;28;20033;-85
2022/03/10 03:42:13;;;;;;;15.65;6.43;;;;;;;0.87;62.12;102272.75;5032806;28;20021;-85
2022/03/10 03:44:39;;;;;;;14.40;6.30;;;;;;;0.80;60.58;102260.47;5033091;28;20417;-85
2022/03/10 03:47:04;;;;;;;17.42;7.05;;;;;;;0.76;59.65;102260.34;5033729;28;20083;-85
2022/03/10 03:49:29;;;;;;;18.08;7.53;;;;;;;0.76;60.61;102269.69;5032052;28;20021;-85
2022/03/10 03:51:55;;;;;;;17.27;6.88;;;;;;;0.72;61.64;102266.09;5032967;28;20045;-85
2022/03/10 03:54:20;;;;;;;17.80;6.57;;;;;;;0.69;60.57;102268.50;5032823;28;20462;-85
2022/03/10 03:56:45;;;;;;;17.88;6.97;;;;;;;0.71;63.48;102268.59;5032123;28;20032;-84
2022/03/10 03:59:10;;;;;;;19.52;7.80;;;;;;;0.69;61.77;102276.16;5032841;28;20429;-85
2022/03/10 04:01:39;;;;;;;16.92;7.40;;;;;;;0.70;60.83;102285.59;5032389;28;20146;-85
2022/03/10 04:04:04;;;;;;;16.85;7.15;;;;;;;0.69;61.67;102288.09;5032045;28;20029;-86
2022/03/10 04:06:29;;;;;;;17.85;7.18;;;;;;;0.66;61.16;102288.81;5032372;28;20014;-84
2022/03/10 04:08:57;;;;;;;15.85;6.40;;;;;;;0.64;61.41;102286.97;5032686;28;20026;-85
2022/03/10 04:11:22;;;;;;;17.75;7.00;;;;;;;0.65;60.81;102299.84;5031956;28;20033;-84
2022/03/10 04:13:48;;;;;;;18.67;7.40;;;;;;;0.63;62.36;102296.34;5032912;28;20032;-85
2022/03/10 04:16:13;;;;;;;16.02;6.47;;;;;;;0.61;60.40;102286.03;5032511;28;20026;-85
2022/03/10 04:18:38;;;;;;;18.42;7.30;;;;;;;0.57;62.79;102288.34;5031975;28;20473;-85
2022/03/10 04:21:04;;;;;;;16.15;6.63;;;;;;;0.50;62.80;102291.41;5032995;28;20031;-85
2022/03/10 04:23:29;;;;;;;18.42;7.38;;;;;;;0.45;62.40;102280.97;5032822;28;20071;-85
2022/03/10 04:25:55;;;;;;;17.63;7.25;;;;;;;0.43;65.18;102292.78;5043862;28;20005;-84
2022/03/10 04:28:22;;;;;;;15.95;6.60;;;;;;;0.40;62.29;102290.97;5041866;28;20101;-84
2022/03/10 04:30:47;;;;;;;18.70;7.10;;;;;;;0.37;62.72;102290.81;5033088;28;20060;-85
2022/03/10 04:33:12;;;;;;;18.00;6.93;;;;;;;0.32;63.86;102286.25;5032158;28;20499;-85
2022/03/10 04:35:38;;;;;;;19.90;8.10;;;;;;;0.28;63.65;102295.44;5032331;28;20542;-85
2022/03/10 04:38:03;;;;;;;17.15;6.93;;;;;;;0.27;61.74;102291.13;5031932;28;20037;-84
2022/03/10 04:40:32;;;;;;;17.58;7.40;;;;;;;0.26;62.20;102289.38;5032121;28;20079;-85
2022/03/10 04:42:58;;;;;;;16.40;6.40;;;;;;;0.19;62.82;102287.31;5032284;28;20470;-85
2022/03/10 04:45:23;;;;;;;15.55;6.35;;;;;;;0.20;62.88;102291.63;5031122;28;20044;-85
2022/03/10 04:47:48;;;;;;;18.13;6.93;;;;;;;0.19;63.70;102300.97;5032853;28;20025;-85
2022/03/10 04:50:16;;;;;;;16.75;6.97;;;;;;;0.19;64.42;102287.31;5032696;28;20470;-85
2022/03/10 04:52:42;;;;;;;18.48;7.85;;;;;;;0.17;64.64;102282.13;5031397;28;20466;-85
2022/03/10 04:55:10;;;;;;;17.30;7.07;;;;;;;0.12;62.32;102279.34;5032206;28;20037;-85
2022/03/10 04:57:35;;;;;;;17.15;6.90;;;;;;;0.09;62.74;102274.09;5032154;28;20906;-86
2022/03/10 05:00:08;;;;;;;17.38;6.93;;;;;;;0.11;64.86;102287.78;5031934;28;20033;-85
2022/03/10 05:02:33;;;;;;;17.52;7.55;;;;;;;0.08;65.31;102281.66;5031790;28;20096;-85
2022/03/10 05:04:59;;;;;;;17.02;6.40;;;;;;;0.07;63.58;102296.13;5032502;28;20033;-85
2022/03/10 05:07:24;;;;;;;17.52;7.05;;;;;;;0.05;64.96;102284.09;5031286;28;20489;-85
2022/03/10 05:09:49;;;;;;;14.98;6.35;;;;;;;0.02;64.99;102289.03;5033469;28;20029;-85
2022/03/10 05:12:15;;;;;;;16.58;6.72;;;;;;;-0.02;64.70;102296.50;5032496;28;20502;-85
2022/03/10 05:14:40;;;;;;;15.57;5.95;;;;;;;-0.02;65.75;102310.97;5031820;28;20026;-85
2022/03/10 05:17:06;;;;;;;16.73;6.10;;;;;;;-0.02;64.93;102303.31;5032392;28;20405;-85
2022/03/10 05:19:31;;;;;;;13.70;5.65;;;;;;;-0.06;64.52;102294.63;5031812;28;20056;-85
2022/03/10 05:21:56;;;;;;;14.20;5.68;;;;;;;-0.05;63.79;102303.13;5031736;28;20025;-85
2022/03/10 05:24:21;;;;;;;13.57;5.10;;;;;;;-0.09;65.62;102301.22;5031929;28;20116;-84
2022/03/10 05:26:47;;;;;;;15.77;6.10;;;;;;;-0.07;63.17;102303.06;5032432;28;20393;-85
2022/03/10 05:29:12;;;;;;;15.75;6.03;;;;;;;-0.08;64.63;102292.75;5034714;28;20025;-85
2022/03/10 05:31:39;;;;;;;14.63;5.60;;;;;;;-0.10;64.36;102300.34;5034944;28;20454;-85
2022/03/10 05:34:05;;;;;;;15.05;5.90;;;;;;;-0.14;64.79;102303.53;5035711;28;20029;-85
2022/03/10 05:36:30;;;;;;;14.45;5.60;;;;;;;-0.17;65.90;102305.94;5034419;28;20029;-84
2022/03/10 05:38:55;;;;;;;14.43;6.20;;;;;;;-0.22;64.84;102302.25;5035494;28;20045;-85
2022/03/10 05:41:20;;;;;;;17.63;6.78;;;;;;;-0.27;65.31;102307.13;5034739;28;20076;-84
2022/03/10 05:43:46;;;;;;;15.90;6.30;;;;;;;-0.34;65.89;102295.72;5035698;28;20026;-85
2022/03/10 05:46:13;;;;;;;16.00;6.25;;;;;;;-0.30;63.87;102304.41;5035435;28;20375;-84
2022/03/10 05:48:39;;;;;;;15.00;6.20;;;;;;;-0.30;65.39;102299.28;5034385;28;20467;-85
2022/03/10 05:51:04;;;;;;;14.02;5.68;;;;;;;-0.29;64.35;102298.50;5035238;28;20067;-84
2022/03/10 05:53:29;;;;;;;15.68;6.10;;;;;;;-0.29;63.86;102301.06;5034831;28;20032;-84
2022/03/10 05:55:55;;;;;;;15.95;6.40;;;;;;;-0.32;65.76;102306.00;5034140;28;20029;-84
2022/03/10 05:58:20;;;;;;;18.35;7.25;;;;;;;-0.33;64.47;102307.69;5035131;28;20025;-84
2022/03/10 06:00:46;;;;;;;18.67;7.55;;;;;;;-0.35;66.19;102298.19;5034546;28;20052;-84
2022/03/10 06:03:12;;;;;;;19.42;7.93;;;;;;;-0.39;65.38;102291.16;5033958;28;20053;-80
2022/03/10 06:05:37;;;;;;;19.85;7.90;;;;;;;-0.41;65.77;102292.75;5034656;28;20037;-82
2022/03/10 06:08:04;;;;;;;19.13;7.93;;;;;;;-0.45;64.78;102295.94;5034779;28;20029;-83
2022/03/10 06:10:29;;;;;;;20.20;8.18;;;;;;;-0.43;66.10;102297.78;5033965;28;20029;-83
2022/03/10 06:12:54;;;;;;;19.65;8.10;;;;;;;-0.40;63.21;102297.06;5034882;28;20029;-83
2022/03/10 06:15:20;;;;;;;20.38;8.25;;;;;;;-0.35;63.20;102298.19;5034908;28;20032;-82
2022/03/10 06:17:45;;;;;;;22.65;10.38;;;;;;;-0.34;63.71;102297.41;5035033;28;20040;-83
2022/03/10 06:20:11;;;;;;;22.73;10.32;;;;;;;-0.27;64.65;102298.56;5034717;28;20488;-83
2022/03/10 06:22:37;;;;;;;21.55;9.98;;;;;;;-0.24;64.18;102299.63;5034509;28;20033;-83
2022/03/10 06:25:03;;;;;;;22.55;10.15;;;;;;;-0.18;64.08;102305.06;5034075;28;20021;-83
2022/03/10 06:27:28;;;;;;;22.40;10.63;;;;;;;-0.14;64.52;102303.53;5034075;28;20068;-83
2022/03/10 06:29:54;;;;;;;22.30;9.48;;;;;;;-0.10;63.98;102312.22;5034154;28;20049;-83
2022/03/10 06:32:21;;;;;;;21.30;9.82;;;;;;;-0.06;62.71;102306.50;5033758;28;20130;-83
2022/03/10 06:34:48;;;;;;;22.45;10.45;;;;;;;-0.03;63.27;102301.56;5034447;28;20061;-83
2022/03/10 06:37:15;;;;;;;22.73;10.43;;;;;;;0.02;63.87;102302.66;5042180;22;20116;-83
2022/03/10 06:39:41;;;;;;;22.77;9.80;;;;;;;0.04;64.50;102305.31;5032406;28;20029;-83
2022/03/10 06:42:06;;;;;;;22.42;10.20;;;;;;;0.15;63.72;102315.25;5034153;28;20031;-83
2022/03/10 06:44:33;;;;;;;21.95;9.95;;;;;;;0.41;64.13;102302.03;5033393;28;20028;-83
2022/03/10 06:46:58;;;;;;;20.90;9.10;;;;;;;1.10;63.60;102301.97;5034116;28;20021;-84
2022/03/10 06:49:24;;;;;;;20.88;8.82;;;;;;;1.98;60.82;102308.50;5033969;28;20075;-84
2022/03/10 06:51:49;;;;;;;18.55;8.70;;;;;;;2.87;59.02;102301.91;5033614;28;20825;-82
2022/03/10 06:54:16;;;;;;;18.85;8.23;;;;;;;3.78;58.83;102312.19;5034738;28;20022;-92
2022/03/10 06:56:41;;;;;;;19.27;8.25;;;;;;;4.54;58.06;102313.13;5034823;28;20025;-84
2022/03/10 06:59:07;;;;;;;18.20;7.90;;;;;;;5.13;57.26;102311.53;5040050;22;20053;-87
2022/03/10 07:01:32;;;;;;;19.02;8.02;;;;;;;5.47;54.53;102313.41;5034086;28;20025;-87
2022/03/10 07:03:59;;;;;;;20.30;9.07;;;;;;;5.76;52.55;102307.34;5033787;28;20037;-84
2022/03/10 07:06:24;;;;;;;19.60;8.67;;;;;;;6.35;54.05;102327.91;5033001;28;20493;-85
2022/03/10 07:08:49;;;;;;;17.48;7.65;;;;;;;7.20;53.30;102313.59;5033705;28;20288;-85
2022/03/10 07:11:15;;;;;;;17.90;7.72;;;;;;;7.81;50.35;102315.75;5034015;28;20385;-87
2022/03/10 07:13:40;;;;;;;19.02;8.13;;;;;;;7.84;50.80;102320.94;5033977;28;20045;-86
2022/03/10 07:16:05;;;;;;;18.70;7.63;;;;;;;7.24;50.73;102318.00;5034032;28;20025;-87
2022/03/10 07:18:31;;;;;;;20.42;8.68;;;;;;;6.49;50.84;102323.97;5033627;28;20071;-86
2022/03/10 07:20:56;;;;;;;18.73;7.90;;;;;;;5.75;52.23;102328.78;5032685;28;20026;-87
2022/03/10 07:23:21;;;;;;;20.30;8.68;;;;;;;5.14;53.29;102309.00;5033431;28;20503;-86
2022/03/10 07:25:46;;;;;;;19.80;8.55;;;;;;;4.62;54.75;102319.38;5033624;28;20028;-87
2022/03/10 07:28:12;;;;;;;19.63;8.85;;;;;;;4.24;55.27;102323.22;5032570;28;20076;-86
2022/03/10 07:30:37;;;;;;;20.55;9.35;;;;;;;3.95;56.47;102323.94;5033157;28;20067;-86
2022/03/10 07:33:03;;;;;;;20.15;9.00;;;;;;;3.67;56.55;102319.50;5025442;28;20030;-86
2022/03/10 07:35:28;;;;;;;20.52;9.00;;;;;;;3.54;56.93;102329.31;5031896;28;20109;-85
2022/03/10 07:37:56;;;;;;;21.55;9.88;;;;;;;3.38;59.06;102324.41;5025230;28;20105;-86
2022/03/10 07:40:21;;;;;;;23.85;12.10;;;;;;;3.30;58.05;102316.44;5032665;28;20040;-86
2022/03/10 07:42:47;;;;;;;23.42;11.68;;;;;;;3.20;58.46;102322.88;5032937;28;20381;-92
2022/03/10 07:45:12;;;;;;;24.50;12.38;;;;;;;3.11;58.63;102319.97;5033891;28;20025;-86
2022/03/10 07:47:39;;;;;;;27.67;14.55;;;;;;;3.20;59.13;102327.16;5032899;28;20041;-86
2022/03/10 07:50:06;;;;;;;27.38;14.15;;;;;;;3.16;59.29;102318.44;5031311;28;20401;-85
2022/03/10 07:52:32;;;;;;;25.90;13.23;;;;;;;3.23;59.94;102319.56;4995704;28;20042;-85
2022/03/10 07:54:57;;;;;;;27.58;14.07;;;;;;;3.26;59.11;102311.13;5022583;28;20029;-86
2022/03/10 07:57:23;;;;;;;28.45;14.18;;;;;;;3.35;60.12;102316.59;5033027;28;20072;-85
2022/03/10 07:59:48;;;;;;;26.33;13.15;;;;;;;3.38;59.79;102321.84;5032612;28;20063;-85
2022/03/10 08:02:13;;;;;;;25.88;13.60;;;;;;;3.47;59.83;102319.63;5032231;28;20056;-86
2022/03/10 08:04:57;;;;;;;27.38;14.27;;;;;;;3.55;58.60;102317.34;5032543;28;20492;-86
2022/03/10 08:07:22;;;;;;;26.55;13.70;;;;;;;3.57;59.39;102304.56;5032262;28;20053;-86
2022/03/10 08:09:48;;;;;;;27.75;14.57;;;;;;;3.74;59.47;102315.47;5051150;22;21247;-85
2022/03/10 08:12:13;;;;;;;29.63;14.90;;;;;;;3.91;58.72;102324.66;5051234;28;20033;-86
2022/03/10 08:14:38;;;;;;;27.38;14.23;;;;;;;3.96;59.20;102323.13;5051620;28;20033;-87
2022/03/10 08:17:04;;;;;;;26.08;14.38;;;;;;;4.08;58.46;102327.81;5051260;28;20110;-87
2022/03/10 08:19:29;;;;;;;27.70;14.25;;;;;;;4.23;57.78;102329.19;5052938;28;20025;-86
2022/03/10 08:21:54;;;;;;;29.15;15.93;;;;;;;4.29;57.88;102327.72;5052592;28;20037;-86
2022/03/10 08:24:19;;;;;;;29.00;15.68;;;;;;;4.34;58.33;102327.88;5052038;28;20521;-86
2022/03/10 08:26:45;;;;;;;27.50;14.43;;;;;;;4.47;57.85;102321.44;5052882;28;20021;-87
2022/03/10 08:29:10;;;;;;;30.38;15.52;;;;;;;4.66;57.07;102330.66;5053129;28;20381;-87
2022/03/10 08:31:35;;;;;;;30.98;16.77;;;;;;;4.76;57.41;102324.13;5051214;28;20116;-86
2022/03/10 08:34:01;;;;;;;26.95;14.27;;;;;;;4.80;58.24;102320.78;5046162;28;20486;-87
2022/03/10 08:36:26;;;;;;;29.92;16.55;;;;;;;5.13;56.67;102317.53;5032077;28;20063;-87
2022/03/10 08:38:51;;;;;;;30.20;16.55;;;;;;;5.09;56.50;102313.16;5032260;28;20040;-87
2022/03/10 08:41:17;;;;;;;27.67;14.73;;;;;;;5.16;57.86;102311.66;5047962;28;20060;-87
2022/03/10 08:43:42;;;;;;;27.35;14.20;;;;;;;5.28;56.88;102309.44;5052791;28;20037;-87
2022/03/10 08:46:08;;;;;;;27.85;14.98;;;;;;;5.37;57.02;102303.69;5051620;28;20036;-87
2022/03/10 08:48:34;;;;;;;27.50;14.40;;;;;;;5.54;57.04;102311.91;5052552;28;20029;-87
2022/03/10 08:51:02;;;;;;;28.38;15.15;;;;;;;5.70;56.53;102313.22;5052259;28;20113;-87
2022/03/10 08:53:27;;;;;;;26.48;14.18;;;;;;;5.78;57.15;102308.28;5052261;28;20078;-87
2022/03/10 08:55:53;;;;;;;28.98;16.13;;;;;;;5.90;56.06;102311.19;5052582;28;20029;-87
2022/03/10 08:58:18;;;;;;;28.13;14.85;;;;;;;5.99;56.40;102308.91;5051730;28;20052;-87
2022/03/10 09:00:44;;;;;;;28.52;14.55;;;;;;;6.15;55.67;102317.06;5052686;28;20107;-87
2022/03/10 09:03:09;;;;;;;25.95;13.75;;;;;;;6.25;55.59;102308.75;5056052;28;20045;-88
2022/03/10 09:05:42;;;;;;;28.05;15.10;;;;;;;6.42;55.53;102311.75;5033331;28;20527;-87
2022/03/10 09:08:13;;;;;;;26.35;14.52;;;;;;;6.67;55.12;102304.63;5036857;28;20029;-87
2022/03/10 09:10:42;;;;;;;25.52;13.98;;;;;;;6.83;54.83;102298.13;5035537;28;20517;-87
2022/03/10 09:13:16;;;;;;;25.33;12.95;;;;;;;6.94;54.24;102291.50;5036350;28;20044;-87
2022/03/10 09:15:45;;;;;;;28.63;14.80;;;;;;;7.10;54.07;102286.69;5036980;28;20118;-86
2022/03/10 09:18:11;;;;;;;25.38;12.93;;;;;;;7.26;54.30;102288.78;5035894;28;20053;-87
2022/03/10 09:20:36;;;;;;;26.37;13.87;;;;;;;7.41;53.61;102284.78;5034760;28;20057;-87
2022/03/10 09:23:01;;;;;;;27.63;14.57;;;;;;;7.57;53.60;102291.13;5035947;28;20104;-86
2022/03/10 09:25:26;;;;;;;26.57;14.17;;;;;;;7.75;53.42;102284.59;5035410;28;20104;-87
2022/03/10 09:27:52;;;;;;;24.40;12.70;;;;;;;7.92;53.22;102282.31;5035546;28;20033;-87
2022/03/10 09:30:17;;;;;;;23.42;12.05;;;;;;;8.06;53.64;102280.88;5053394;28;20086;-87
2022/03/10 09:32:43;;;;;;;24.43;12.47;;;;;;;8.27;53.01;102277.81;5044144;28;20429;-87
2022/03/10 09:35:11;;;;;;;24.33;12.52;;;;;;;8.47;52.86;102270.41;5035257;28;20105;-87
2022/03/10 09:37:39;;;;;;;26.77;14.52;;;;;;;8.68;51.98;102266.41;5035445;28;20029;-87
2022/03/10 09:40:07;;;;;;;26.35;14.00;;;;;;;8.82;51.25;102266.63;5035777;28;20377;-87
2022/03/10 09:42:33;;;;;;;26.45;13.85;;;;;;;9.00;50.87;102265.16;5034573;28;20030;-87
2022/03/10 09:45:04;;;;;;;25.92;13.23;;;;;;;9.17;50.26;102268.84;5035706;28;20029;-87
2022/03/10 09:47:30;;;;;;;27.20;14.23;;;;;;;9.36;49.77;102267.34;5034331;28;20429;-87
2022/03/10 09:49:55;;;;;;;24.83;12.93;;;;;;;9.58;50.75;102267.63;5035750;28;20036;-87
2022/03/10 09:52:22;;;;;;;26.70;14.13;;;;;;;9.60;49.94;102255.53;5035014;28;20546;-86
2022/03/10 09:54:48;;;;;;;26.15;13.70;;;;;;;9.81;49.74;102262.69;5034689;28;20029;-87
2022/03/10 09:57:15;;;;;;;25.60;13.43;;;;;;;9.92;49.60;102259.34;5043539;28;20090;-87
2022/03/10 09:59:50;;;;;;;25.65;13.68;;;;;;;10.02;48.56;102262.03;5055096;28;20048;-87
2022/03/10 10:02:16;;;;;;;24.80;13.95;;;;;;;10.10;48.84;102259.53;5043106;28;20044;-87
2022/03/10 10:04:43;;;;;;;26.90;14.15;;;;;;;10.20;47.52;102252.69;5035019;28;20091;-87
2022/03/10 10:07:10;;;;;;;29.30;16.23;;;;;;;10.32;48.19;102250.22;5035238;28;20083;-87
2022/03/10 10:09:42;;;;;;;28.63;15.68;;;;;;;10.40;48.22;102247.72;5034082;28;20029;-87
2022/03/10 10:12:08;;;;;;;28.05;15.32;;;;;;;10.44;47.91;102249.47;5034653;28;20049;-87
2022/03/10 10:14:39;;;;;;;30.17;16.92;;;;;;;10.54;47.38;102242.63;5034102;28;20032;-87
2022/03/10 10:17:05;;;;;;;27.10;14.98;;;;;;;10.57;46.55;102242.66;5034188;28;20088;-87
2022/03/10 10:19:34;;;;;;;28.67;16.17;;;;;;;10.73;46.11;102243.63;5034822;28;20021;-87
2022/03/10 10:22:20;;;;;;;27.60;16.00;;;;;;;10.83;47.04;102244.53;5034939;28;20124;-87
2022/03/10 10:24:58;;;;;;;27.67;15.30;;;;;;;10.95;46.99;102236.81;5033995;28;20036;-87
2022/03/10 10:27:29;;;;;;;28.95;15.98;;;;;;;11.08;46.27;102232.59;5034443;28;20786;-86
2022/03/10 10:29:56;;;;;;;27.63;15.77;;;;;;;11.18;46.05;102222.22;5038890;28;20090;-88
2022/03/10 10:32:24;;;;;;;28.55;15.98;;;;;;;11.31;45.88;102234.41;5052058;28;20120;-86
2022/03/10 10:35:01;;;;;;;25.45;13.77;;;;;;;11.42;46.22;102227.53;5054181;28;20040;-85
2022/03/10 10:37:26;;;;;;;25.48;14.18;;;;;;;11.56;46.84;102227.56;5052746;28;20032;-84
2022/03/10 10:39:53;;;;;;;25.00;13.40;;;;;;;11.76;46.05;102237.13;5053991;28;20100;-85
2022/03/10 10:42:18;;;;;;;22.25;12.35;;;;;;;11.89;46.36;102225.88;5053644;28;20017;-82
2022/03/10 10:44:43;;;;;;;25.13;13.47;;;;;;;12.04;45.67;102227.66;5053500;28;20381;-83
2022/03/10 10:47:09;;;;;;;24.90;14.40;;;;;;;12.15;45.92;102232.88;5054271;28;20033;-83
2022/03/10 10:49:37;;;;;;;26.73;15.20;;;;;;;12.32;43.43;102230.28;5053909;28;20382;-83
2022/03/10 10:52:03;;;;;;;26.48;15.23;;;;;;;12.36;42.32;102212.94;5052902;28;20025;-82
2022/03/10 10:54:31;;;;;;;26.20;15.00;;;;;;;12.41;45.30;102221.59;5044385;28;20055;-83
2022/03/10 10:57:01;;;;;;;25.88;14.43;;;;;;;12.55;45.52;102215.50;5033898;28;20034;-81
2022/03/10 10:59:41;;;;;;;24.00;13.57;;;;;;;12.71;43.28;102218.94;5032174;28;20018;-85
2022/03/10 11:02:17;;;;;;;26.75;15.93;;;;;;;12.76;43.91;102212.00;5033209;28;20029;-85
2022/03/10 11:04:44;;;;;;;;;;;;;;;12.79;43.15;102215.44;5033721;28;20025;-84
2022/03/10 11:07:10;;;;;;;;;;;;;;;12.87;44.09;102209.34;5034329;28;19917;-85
2022/03/10 11:09:36;;;;;;;26.73;14.65;;;;;;;12.95;44.52;102194.53;5034016;28;20388;-85
2022/03/10 11:12:01;;;;;;;23.80;13.27;;;;;;;13.10;44.48;102202.31;5032855;28;20486;-85
2022/03/10 11:14:27;;;;;;;25.67;13.93;;;;;;;13.22;43.55;102204.03;5034181;28;20268;-85
2022/03/10 11:16:53;;;;;;;25.67;13.97;;;;;;;13.30;43.60;102201.34;5033496;28;20420;-85
2022/03/10 11:19:25;;;;;;;25.25;14.45;;;;;;;13.44;43.52;102202.19;5032942;28;20070;-85
2022/03/10 11:22:11;;;;;;;25.35;13.93;;;;;;;13.55;43.25;102207.34;5033764;28;20489;-85